Time;durP1;ratioP1;P1;durP2;ratioP2;P2;SDS_P1;SDS_P2;PMS_P1;PMS_P2;Temp;Humidity;BMP_temperature;BMP_pressure;BME280_temperature;BME280_humidity;BME280_pressure;Samples;Min_cycle;Max_cycle;Signal;HPM_P1;HPM_P2
2023/11/08 00:04:17;;;;;;;1.70;0.90;;;11.30;37.20;;;;;;10266814;28;20259;-76
2023/11/08 00:09:20;;;;;;;1.87;0.90;;;11.30;37.20;;;;;;10268974;28;20232;-76
2023/11/08 00:14:24;;;;;;;1.27;0.80;;;11.30;37.10;;;;;;10266857;28;20238;-76
2023/11/08 00:19:28;;;;;;;2.77;1.10;;;11.30;36.80;;;;;;10264238;28;20231;-76
2023/11/08 00:24:31;;;;;;;1.87;1.00;;;11.30;36.90;;;;;;10264220;28;20238;-76
2023/11/08 00:29:35;;;;;;;2.43;1.00;;;11.20;36.80;;;;;;10265196;28;20235;-76
2023/11/08 00:34:40;;;;;;;1.77;0.90;;;11.10;36.80;;;;;;10266611;28;20228;-76
2023/11/08 00:39:44;;;;;;;2.10;0.97;;;11.10;36.80;;;;;;10261974;28;20314;-76
2023/11/08 00:44:47;;;;;;;2.00;1.20;;;11.00;36.70;;;;;;10268020;28;20294;-76
2023/11/08 00:49:51;;;;;;;1.70;0.93;;;10.90;36.70;;;;;;10261075;28;20242;-76
2023/11/08 00:54:55;;;;;;;0.97;0.93;;;10.90;36.90;;;;;;10269977;28;20231;-76
2023/11/08 00:59:58;;;;;;;1.37;1.00;;;10.80;36.90;;;;;;10263792;28;20232;-76
2023/11/08 01:05:03;;;;;;;1.70;1.03;;;10.80;37.00;;;;;;10260712;28;20224;-76
2023/11/08 01:10:07;;;;;;;3.57;0.93;;;10.70;36.90;;;;;;10264435;28;20274;-76
2023/11/08 01:15:11;;;;;;;1.20;0.93;;;10.70;37.00;;;;;;10259656;28;20219;-76
2023/11/08 01:20:15;;;;;;;2.13;1.10;;;10.60;37.00;;;;;;10265305;28;20776;-76
2023/11/08 01:25:19;;;;;;;1.43;1.03;;;10.60;37.10;;;;;;10263289;28;20235;-76
2023/11/08 01:30:23;;;;;;;1.73;1.10;;;10.50;37.00;;;;;;10264073;28;20237;-76
2023/11/08 01:35:28;;;;;;;2.20;1.03;;;10.50;37.30;;;;;;10263721;28;20954;-76
2023/11/08 01:40:32;;;;;;;1.20;1.07;;;10.40;37.50;;;;;;10264802;28;20243;-76
2023/11/08 01:45:35;;;;;;;1.17;1.07;;;10.40;37.40;;;;;;10261135;28;20711;-76
2023/11/08 01:50:39;;;;;;;1.17;1.00;;;10.40;37.50;;;;;;10262794;28;20234;-76
2023/11/08 01:55:43;;;;;;;1.47;1.20;;;10.40;37.70;;;;;;10263179;28;20324;-76
2023/11/08 02:00:50;;;;;;;1.57;1.23;;;10.40;37.50;;;;;;10263565;28;20232;-76
2023/11/08 02:05:56;;;;;;;1.83;1.03;;;10.30;37.80;;;;;;10264495;28;20814;-76
2023/11/08 02:10:59;;;;;;;1.30;1.10;;;10.30;37.70;;;;;;10264313;28;20227;-76
2023/11/08 02:16:04;;;;;;;1.93;1.27;;;10.20;37.60;;;;;;10258080;28;20223;-76
2023/11/08 02:21:13;;;;;;;2.43;1.50;;;10.20;37.70;;;;;;10264201;28;20731;-76
2023/11/08 02:26:18;;;;;;;2.17;1.20;;;10.20;37.90;;;;;;10266129;28;20235;-76
2023/11/08 02:31:21;;;;;;;6.03;1.40;;;10.20;37.90;;;;;;10269309;28;20235;-76
2023/11/08 02:36:24;;;;;;;1.80;1.10;;;10.10;37.70;;;;;;10269985;28;20231;-76
2023/11/08 02:41:29;;;;;;;1.40;1.20;;;10.10;37.80;;;;;;10271834;28;20768;-76
2023/11/08 02:46:32;;;;;;;1.87;1.10;;;10.00;37.90;;;;;;10266947;28;20231;-76
2023/11/08 02:51:35;;;;;;;1.87;1.17;;;10.00;37.70;;;;;;10269557;28;20230;-76
2023/11/08 02:56:41;;;;;;;1.37;1.10;;;9.90;38.70;;;;;;10267894;28;20231;-76
2023/11/08 03:01:45;;;;;;;1.13;1.03;;;9.90;38.80;;;;;;10264586;28;20243;-76
2023/11/08 03:06:48;;;;;;;4.43;3.00;;;9.80;38.60;;;;;;10262415;28;20334;-76
2023/11/08 03:11:57;;;;;;;1.70;1.50;;;9.80;38.70;;;;;;10267424;28;20228;-76
2023/11/08 03:17:00;;;;;;;3.97;2.20;;;9.80;39.00;;;;;;10267085;28;20317;-76
2023/11/08 03:22:03;;;;;;;2.33;1.50;;;9.80;38.90;;;;;;10271563;28;20232;-76
2023/11/08 03:27:08;;;;;;;1.00;0.97;;;9.80;39.10;;;;;;10266551;28;20235;-76
2023/11/08 03:32:11;;;;;;;2.73;1.13;;;9.80;39.40;;;;;;10267813;28;20239;-76
2023/11/08 03:37:15;;;;;;;1.80;1.03;;;9.80;39.20;;;;;;10263997;28;20347;-76
2023/11/08 03:42:19;;;;;;;2.40;1.20;;;9.90;39.40;;;;;;10270714;28;20235;-76
2023/11/08 03:47:22;;;;;;;2.00;0.90;;;9.90;39.60;;;;;;10265551;28;20263;-76
2023/11/08 03:52:26;;;;;;;2.67;1.10;;;10.00;38.40;;;;;;10262194;28;20405;-76
2023/11/08 03:57:31;;;;;;;1.77;1.23;;;10.00;38.40;;;;;;10270600;28;20330;-76
2023/11/08 04:02:35;;;;;;;3.13;1.10;;;10.10;38.60;;;;;;10265067;28;20266;-76
2023/11/08 04:07:38;;;;;;;1.70;0.93;;;10.20;38.60;;;;;;10266104;28;20236;-76
2023/11/08 04:12:43;;;;;;;1.97;1.07;;;10.20;38.40;;;;;;10268298;28;21062;-76
2023/11/08 04:17:46;;;;;;;2.37;0.93;;;10.20;38.50;;;;;;10267211;28;20219;-76
2023/11/08 04:22:49;;;;;;;1.30;0.97;;;10.30;38.30;;;;;;10260756;28;20227;-76
2023/11/08 04:27:54;;;;;;;2.03;1.00;;;10.30;38.30;;;;;;10260795;28;20228;-76
2023/11/08 04:32:57;;;;;;;2.37;0.90;;;10.40;38.40;;;;;;10264115;28;20724;-76
2023/11/08 04:38:00;;;;;;;1.77;0.90;;;10.40;38.40;;;;;;10262425;28;20231;-76
2023/11/08 04:43:05;;;;;;;2.23;1.00;;;10.40;38.30;;;;;;10262917;28;20228;-75
2023/11/08 04:48:09;;;;;;;2.07;1.00;;;10.40;38.30;;;;;;10264665;28;20290;-76
2023/11/08 04:53:12;;;;;;;2.73;0.87;;;10.50;38.20;;;;;;10269963;28;20231;-76
2023/11/08 04:58:17;;;;;;;0.93;0.90;;;10.50;38.20;;;;;;10260750;28;20239;-76
2023/11/08 05:03:20;;;;;;;2.07;1.20;;;10.50;38.40;;;;;;10265000;28;20239;-76
2023/11/08 05:08:25;;;;;;;1.10;1.00;;;10.40;38.40;;;;;;10266620;28;20242;-76
2023/11/08 05:13:29;;;;;;;1.07;0.97;;;10.40;38.60;;;;;;10264711;28;20224;-76
2023/11/08 05:18:33;;;;;;;2.43;1.07;;;10.40;38.70;;;;;;10263412;28;20251;-76
2023/11/08 05:23:36;;;;;;;3.03;1.23;;;10.40;38.60;;;;;;10266997;28;20302;-76
2023/11/08 05:28:41;;;;;;;2.67;1.07;;;10.40;38.70;;;;;;10264328;28;20311;-77
2023/11/08 05:33:44;;;;;;;1.30;1.20;;;10.40;38.70;;;;;;10258997;28;20224;-77
2023/11/08 05:38:47;;;;;;;2.27;1.20;;;10.40;38.50;;;;;;10268954;28;20274;-77
2023/11/08 05:43:52;;;;;;;1.20;1.10;;;10.40;38.50;;;;;;10264121;28;20231;-77
2023/11/08 05:48:57;;;;;;;2.20;1.00;;;10.30;38.60;;;;;;10259788;28;20228;-76
2023/11/08 05:54:00;;;;;;;1.00;0.80;;;10.30;38.40;;;;;;10262258;28;20231;-76
2023/11/08 05:59:06;;;;;;;1.80;0.93;;;10.20;38.30;;;;;;10257842;28;20757;-76
2023/11/08 06:04:09;;;;;;;1.80;1.03;;;10.20;38.60;;;;;;10263730;28;20325;-77
2023/11/08 06:09:14;;;;;;;2.30;1.27;;;10.10;38.40;;;;;;10271019;28;20245;-77
2023/11/08 06:14:19;;;;;;;2.60;1.37;;;10.10;38.40;;;;;;10269057;28;20223;-77
2023/11/08 06:19:22;;;;;;;1.57;1.00;;;10.10;38.50;;;;;;10270383;28;20242;-76
2023/11/08 06:24:26;;;;;;;2.03;1.43;;;10.00;38.40;;;;;;10266281;28;20584;-76
2023/11/08 06:29:36;;;;;;;2.70;1.90;;;10.00;38.50;;;;;;10266224;28;20294;-76
2023/11/08 06:34:41;;;;;;;8.60;6.07;;;10.00;38.90;;;;;;10269307;28;20250;-76
2023/11/08 06:39:44;;;;;;;4.70;2.00;;;10.00;38.70;;;;;;10264845;28;20239;-76
2023/11/08 06:44:49;;;;;;;1.67;1.57;;;10.10;38.90;;;;;;10261419;28;20800;-76
2023/11/08 06:49:52;;;;;;;2.67;1.40;;;10.10;39.00;;;;;;10263319;28;20403;-76
2023/11/08 06:54:55;;;;;;;1.97;1.33;;;10.10;38.80;;;;;;10265230;28;20919;-76
2023/11/08 07:00:00;;;;;;;1.67;1.40;;;10.20;38.80;;;;;;10266262;28;20713;-76
2023/11/08 07:05:05;;;;;;;2.77;1.70;;;10.20;38.80;;;;;;10271623;28;20311;-76
2023/11/08 07:10:11;;;;;;;2.53;1.50;;;10.30;38.80;;;;;;10268412;28;20227;-75
2023/11/08 07:15:16;;;;;;;1.70;1.30;;;10.30;38.80;;;;;;10265428;28;20250;-74
2023/11/08 07:20:19;;;;;;;1.73;1.50;;;10.40;38.90;;;;;;10259818;28;20234;-74
2023/11/08 07:25:22;;;;;;;4.83;3.80;;;10.40;38.90;;;;;;10263056;28;20590;-74
2023/11/08 07:30:27;;;;;;;12.20;8.00;;;10.50;38.80;;;;;;10265585;28;20781;-75
2023/11/08 07:35:31;;;;;;;3.20;2.33;;;10.50;38.80;;;;;;10260933;28;20797;-74
2023/11/08 07:40:34;;;;;;;5.10;3.17;;;10.60;38.70;;;;;;10259173;28;20640;-75
2023/11/08 07:45:39;;;;;;;1.97;1.60;;;10.60;38.80;;;;;;10257462;28;20242;-75
2023/11/08 07:50:42;;;;;;;2.93;1.30;;;10.70;38.90;;;;;;10258222;28;20314;-74
2023/11/08 07:55:45;;;;;;;1.30;1.17;;;10.80;38.90;;;;;;10260696;28;20790;-74
2023/11/08 08:00:50;;;;;;;1.60;1.30;;;10.90;38.80;;;;;;10261262;28;20235;-75
2023/11/08 08:05:53;;;;;;;2.97;1.17;;;11.00;38.90;;;;;;10265490;28;20646;-74
2023/11/08 08:10:57;;;;;;;2.10;1.20;;;11.10;38.60;;;;;;10259682;28;20804;-74
2023/11/08 08:16:02;;;;;;;2.13;1.30;;;11.20;38.50;;;;;;10264200;28;20232;-75
2023/11/08 08:21:06;;;;;;;2.23;1.00;;;11.30;38.40;;;;;;10262794;28;20215;-74
2023/11/08 08:26:09;;;;;;;3.20;1.80;;;11.40;38.40;;;;;;10257662;28;20234;-74
2023/11/08 08:31:13;;;;;;;3.60;2.80;;;11.40;38.30;;;;;;10261657;28;20323;-74
2023/11/08 08:36:18;;;;;;;2.53;1.40;;;11.40;38.20;;;;;;10258471;28;20600;-74
2023/11/08 08:41:21;;;;;;;3.73;1.50;;;11.50;38.40;;;;;;10254374;28;20238;-75
2023/11/08 08:46:26;;;;;;;2.37;1.53;;;11.60;38.40;;;;;;10261529;28;20228;-75
2023/11/08 08:51:29;;;;;;;2.13;1.30;;;11.70;38.30;;;;;;10258207;28;20314;-74
2023/11/08 08:56:33;;;;;;;1.73;1.60;;;11.80;38.50;;;;;;10259999;28;20286;-74
2023/11/08 09:01:37;;;;;;;2.87;1.40;;;12.00;38.10;;;;;;10258553;28;20702;-73
2023/11/08 09:06:41;;;;;;;2.53;1.40;;;12.10;37.90;;;;;;10258554;28;20639;-74
2023/11/08 09:11:44;;;;;;;3.17;1.70;;;12.10;37.90;;;;;;10255396;28;20278;-74
2023/11/08 09:16:49;;;;;;;2.30;1.73;;;12.20;38.00;;;;;;10254566;28;20250;-74
2023/11/08 09:21:52;;;;;;;1.87;1.47;;;12.30;37.80;;;;;;10251496;28;20665;-74
2023/11/08 09:26:56;;;;;;;3.27;1.50;;;12.30;37.70;;;;;;10222359;28;1189080;-74
2023/11/08 09:32:03;;;;;;;1.47;1.20;;;12.30;37.80;;;;;;10254829;28;20268;-74
2023/11/08 09:37:08;;;;;;;2.37;1.30;;;12.40;37.50;;;;;;10255280;28;20813;-74
2023/11/08 09:42:13;;;;;;;5.13;1.40;;;12.40;37.60;;;;;;10259782;28;20235;-74
2023/11/08 09:47:19;;;;;;;1.57;1.00;;;12.50;37.50;;;;;;10259851;28;20227;-73
2023/11/08 09:52:22;;;;;;;1.97;1.20;;;12.60;37.50;;;;;;10257852;28;20712;-73
2023/11/08 09:57:26;;;;;;;1.53;1.13;;;12.70;37.50;;;;;;10256455;28;20235;-74
2023/11/08 10:02:33;;;;;;;1.20;1.10;;;12.70;37.40;;;;;;10258474;28;20232;-73
2023/11/08 10:07:37;;;;;;;1.67;1.20;;;12.90;37.50;;;;;;10260023;28;20808;-74
2023/11/08 10:12:43;;;;;;;1.20;1.10;;;12.90;37.50;;;;;;10256753;28;20228;-74
2023/11/08 10:17:49;;;;;;;1.83;1.30;;;13.20;37.80;;;;;;10259000;28;20232;-73
2023/11/08 10:23:26;;;;;;;1.10;1.00;;;13.30;37.40;;;;;;10252288;28;20722;-74
2023/11/08 10:28:29;;;;;;;1.93;1.20;;;13.60;36.90;;;;;;10250004;28;20703;-74
2023/11/08 10:33:34;;;;;;;1.40;1.30;;;13.70;37.90;;;;;;10255872;28;20236;-73
2023/11/08 10:38:39;;;;;;;1.30;0.90;;;13.90;36.30;;;;;;10258400;28;20251;-74
2023/11/08 10:43:43;;;;;;;1.73;0.90;;;14.00;36.50;;;;;;10252320;28;20246;-73
2023/11/08 10:48:48;;;;;;;1.67;1.17;;;14.20;36.40;;;;;;10261578;28;20239;-74
2023/11/08 10:53:53;;;;;;;1.87;1.20;;;14.30;35.90;;;;;;10265439;28;20605;-73
2023/11/08 10:59:02;;;;;;;2.00;1.43;;;14.30;36.00;;;;;;10265527;28;20224;-73
2023/11/08 11:04:11;;;;;;;1.97;1.23;;;14.40;35.90;;;;;;10260639;28;20227;-74
2023/11/08 11:09:16;;;;;;;1.13;0.93;;;14.50;35.30;;;;;;10261986;28;20255;-74
2023/11/08 11:14:27;;;;;;;1.73;1.17;;;14.60;36.20;;;;;;10261402;28;20223;-74
2023/11/08 11:19:33;;;;;;;1.03;0.93;;;14.60;34.60;;;;;;10260319;28;20246;-74
2023/11/08 11:24:41;;;;;;;1.40;1.20;;;14.60;34.60;;;;;;10259363;28;20232;-73
2023/11/08 11:29:49;;;;;;;1.50;1.10;;;14.70;34.40;;;;;;10260883;28;20275;-73
2023/11/08 11:34:53;;;;;;;1.50;1.10;;;14.70;34.90;;;;;;10262481;28;20235;-74
2023/11/08 11:40:14;;;;;;;1.13;0.80;;;14.70;34.40;;;;;;10258766;28;20255;-74
2023/11/08 11:45:20;;;;;;;1.53;0.90;;;14.80;33.30;;;;;;10257910;28;20721;-74
2023/11/08 11:50:27;;;;;;;2.30;0.87;;;14.90;34.20;;;;;;10262391;28;20342;-74
2023/11/08 11:55:32;;;;;;;7.93;5.83;;;14.90;34.10;;;;;;10261229;28;20633;-73
2023/11/08 12:00:35;;;;;;;9.70;6.90;;;15.00;33.70;;;;;;10257711;28;20323;-74
2023/11/08 12:05:41;;;;;;;3.20;2.57;;;15.10;34.00;;;;;;10261635;28;20248;-74
2023/11/08 12:10:45;;;;;;;2.93;2.10;;;15.00;33.60;;;;;;10258604;28;20247;-73
2023/11/08 12:16:00;;;;;;;1.30;1.20;;;15.00;34.00;;;;;;10260507;28;20338;-73
2023/11/08 12:21:05;;;;;;;1.40;1.10;;;15.00;32.50;;;;;;10252876;28;20231;-73
2023/11/08 12:26:08;;;;;;;1.50;0.97;;;15.00;33.20;;;;;;10255174;28;20261;-72
2023/11/08 12:31:13;;;;;;;0.80;0.80;;;14.90;33.70;;;;;;10258054;28;20643;-72
2023/11/08 12:36:18;;;;;;;1.67;0.80;;;14.90;33.40;;;;;;10259438;28;20235;-72
2023/11/08 12:41:21;;;;;;;1.07;0.70;;;14.80;33.70;;;;;;10259016;28;20307;-72
2023/11/08 12:46:24;;;;;;;0.93;0.83;;;14.70;33.50;;;;;;10257476;28;20256;-72
2023/11/08 12:51:46;;;;;;;0.73;0.60;;;14.70;33.80;;;;;;10255673;28;20227;-72
2023/11/08 12:56:50;;;;;;;0.67;0.67;;;14.60;33.00;;;;;;10257121;28;20732;-72
2023/11/08 13:02:11;;;;;;;0.80;0.80;;;14.60;33.40;;;;;;10254616;28;20238;-72
2023/11/08 13:07:16;;;;;;;1.33;1.00;;;14.60;33.00;;;;;;10256789;28;20223;-73
2023/11/08 13:12:19;;;;;;;1.90;0.87;;;14.60;33.60;;;;;;10258791;28;20238;-73
2023/11/08 13:17:22;;;;;;;1.47;1.03;;;14.60;33.20;;;;;;10246557;28;20875;-71
2023/11/08 13:22:27;;;;;;;1.10;1.00;;;14.60;33.60;;;;;;10247698;28;20238;-72
2023/11/08 13:27:30;;;;;;;1.30;0.90;;;14.60;33.20;;;;;;10245552;28;20236;-72
2023/11/08 13:32:34;;;;;;;1.70;1.23;;;14.60;33.60;;;;;;10253055;28;20242;-72
2023/11/08 13:37:38;;;;;;;1.07;0.97;;;14.60;33.90;;;;;;10250437;28;21048;-72
2023/11/08 13:42:41;;;;;;;0.97;0.87;;;14.60;33.20;;;;;;10248809;28;20235;-71
2023/11/08 13:47:45;;;;;;;0.90;0.90;;;14.70;33.50;;;;;;10250076;28;20227;-72
2023/11/08 13:52:51;;;;;;;1.30;0.93;;;14.70;33.40;;;;;;10245638;28;20310;-73
2023/11/08 13:57:54;;;;;;;0.70;0.60;;;14.80;32.70;;;;;;10246101;28;20227;-73
2023/11/08 14:02:59;;;;;;;0.93;0.77;;;14.80;33.10;;;;;;10244838;28;20232;-72
2023/11/08 14:08:04;;;;;;;1.00;0.87;;;14.80;33.10;;;;;;10247639;28;20223;-73
2023/11/08 14:13:07;;;;;;;1.77;0.80;;;14.80;32.90;;;;;;10243005;28;20224;-75
2023/11/08 14:18:11;;;;;;;0.90;0.80;;;14.90;33.20;;;;;;10246657;28;20242;-75
2023/11/08 14:23:15;;;;;;;1.20;0.80;;;14.90;33.20;;;;;;10249260;28;20865;-75
2023/11/08 14:28:19;;;;;;;1.60;0.90;;;14.90;32.60;;;;;;10253050;28;20294;-75
2023/11/08 14:33:24;;;;;;;0.97;0.87;;;14.90;32.90;;;;;;10254648;28;20231;-75
2023/11/08 14:38:30;;;;;;;0.90;0.80;;;14.90;32.60;;;;;;10254941;28;20289;-75
2023/11/08 14:43:33;;;;;;;1.37;0.80;;;14.80;31.90;;;;;;10251994;28;20263;-75
2023/11/08 14:48:38;;;;;;;1.87;1.20;;;14.60;32.50;;;;;;10249207;28;20761;-75
2023/11/08 14:53:43;;;;;;;1.70;0.80;;;14.50;32.80;;;;;;10251823;28;20646;-75
2023/11/08 14:58:46;;;;;;;2.30;1.00;;;14.40;32.60;;;;;;10255595;28;20890;-75
2023/11/08 15:03:49;;;;;;;1.13;1.03;;;14.30;33.00;;;;;;10255058;28;20710;-75
2023/11/08 15:08:54;;;;;;;1.93;1.50;;;14.30;33.10;;;;;;10262561;28;20236;-74
2023/11/08 15:14:17;;;;;;;3.77;2.47;;;14.20;32.80;;;;;;10263245;28;20223;-75
2023/11/08 15:19:21;;;;;;;2.90;2.60;;;14.20;33.10;;;;;;10265042;28;20238;-74
2023/11/08 15:24:28;;;;;;;2.27;2.10;;;14.20;33.30;;;;;;10261980;28;20979;-74
2023/11/08 15:29:32;;;;;;;1.80;1.70;;;14.20;33.00;;;;;;10263948;28;20235;-75
2023/11/08 15:34:35;;;;;;;4.03;3.50;;;14.20;33.20;;;;;;10263184;28;20330;-75
2023/11/08 15:39:39;;;;;;;5.23;4.47;;;14.10;33.10;;;;;;10264307;28;20235;-73
2023/11/08 15:44:43;;;;;;;5.37;3.57;;;14.10;33.10;;;;;;10262305;28;21122;-73
2023/11/08 15:49:46;;;;;;;3.10;2.77;;;14.10;33.60;;;;;;10258902;28;20223;-73
2023/11/08 15:54:51;;;;;;;2.90;2.43;;;14.20;33.70;;;;;;10261920;28;20232;-73
2023/11/08 15:59:56;;;;;;;2.17;1.97;;;14.20;33.50;;;;;;10261307;28;20287;-72
2023/11/08 16:04:59;;;;;;;2.10;2.00;;;14.30;33.50;;;;;;10266672;28;20235;-75
2023/11/08 16:10:05;;;;;;;4.37;3.20;;;14.40;33.90;;;;;;10271642;28;20307;-76
2023/11/08 16:15:09;;;;;;;4.63;3.20;;;14.50;33.30;;;;;;10270465;28;20603;-76
2023/11/08 16:20:13;;;;;;;3.80;3.43;;;14.50;33.10;;;;;;10263149;28;20331;-75
2023/11/08 16:25:18;;;;;;;4.57;3.00;;;14.40;32.90;;;;;;10271772;28;20238;-76
2023/11/08 16:30:21;;;;;;;5.67;5.17;;;14.40;32.60;;;;;;10264934;28;20235;-75
2023/11/08 16:35:44;;;;;;;9.17;8.30;;;14.30;32.70;;;;;;10269550;28;20220;-76
2023/11/08 16:40:49;;;;;;;8.33;7.53;;;14.30;32.60;;;;;;10275202;28;20234;-77
2023/11/08 16:45:52;;;;;;;7.13;5.43;;;14.10;32.40;;;;;;10275846;28;20599;-78
2023/11/08 16:50:55;;;;;;;14.90;11.70;;;14.10;32.80;;;;;;10265143;28;20240;-80
2023/11/08 16:56:01;;;;;;;9.93;8.77;;;14.00;32.50;;;;;;10271076;28;20479;-79
2023/11/08 17:01:05;;;;;;;11.60;9.07;;;13.80;32.50;;;;;;10250329;28;20236;-78
2023/11/08 17:06:10;;;;;;;7.87;7.00;;;13.70;32.50;;;;;;10259210;28;20294;-78
2023/11/08 17:11:15;;;;;;;25.13;18.83;;;13.70;32.50;;;;;;10255670;28;20251;-77
2023/11/08 17:16:18;;;;;;;50.53;30.97;;;13.50;32.30;;;;;;10255827;28;20251;-78
2023/11/08 17:21:22;;;;;;;45.00;27.53;;;13.40;32.20;;;;;;10262171;28;20283;-78
2023/11/08 17:26:26;;;;;;;31.13;21.57;;;13.20;32.30;;;;;;10257883;28;20231;-76
2023/11/08 17:31:30;;;;;;;21.70;19.03;;;12.90;32.50;;;;;;10255532;28;20224;-77
2023/11/08 17:36:33;;;;;;;62.07;44.17;;;12.80;32.60;;;;;;10259756;28;20238;-77
2023/11/08 17:41:39;;;;;;;49.23;33.50;;;12.80;32.60;;;;;;10257703;28;20228;-77
2023/11/08 17:46:43;;;;;;;19.40;16.33;;;12.60;32.60;;;;;;10260516;28;20997;-77
2023/11/08 17:51:46;;;;;;;17.53;14.27;;;12.50;32.70;;;;;;10260861;28;20283;-77
2023/11/08 17:56:51;;;;;;;14.47;12.07;;;12.50;32.70;;;;;;10256592;28;20262;-78
2023/11/08 18:01:55;;;;;;;14.53;12.93;;;12.40;32.50;;;;;;10255808;28;20235;-78
2023/11/08 18:06:59;;;;;;;20.93;17.80;;;12.30;32.60;;;;;;10262301;28;20871;-78
2023/11/08 18:12:04;;;;;;;21.20;19.00;;;12.20;32.60;;;;;;10257202;28;20227;-77
2023/11/08 18:17:09;;;;;;;19.67;17.43;;;12.10;32.70;;;;;;10249117;28;20669;-78
2023/11/08 18:22:12;;;;;;;13.70;12.30;;;11.90;32.60;;;;;;10255016;28;20282;-77
2023/11/08 18:27:17;;;;;;;13.90;11.80;;;11.80;32.80;;;;;;10258900;28;20240;-74
2023/11/08 18:32:20;;;;;;;16.03;14.17;;;11.70;33.00;;;;;;10254593;28;20231;-74
2023/11/08 18:37:23;;;;;;;58.27;32.70;;;11.60;33.00;;;;;;10260089;28;20232;-74
2023/11/08 18:42:28;;;;;;;53.30;30.43;;;11.50;33.00;;;;;;10260760;28;20961;-74
2023/11/08 18:47:32;;;;;;;37.80;25.90;;;11.40;33.00;;;;;;10260028;28;20259;-74
2023/11/08 18:52:35;;;;;;;42.10;30.53;;;11.30;33.10;;;;;;10266728;28;20601;-74
2023/11/08 18:57:39;;;;;;;23.30;19.57;;;11.20;33.10;;;;;;10263816;28;20236;-74
2023/11/08 19:02:42;;;;;;;12.43;10.40;;;11.20;33.30;;;;;;10263711;28;20235;-74
2023/11/08 19:07:50;;;;;;;15.77;13.20;;;11.20;33.10;;;;;;10273226;28;20271;-74
2023/11/08 19:12:57;;;;;;;15.40;13.27;;;11.10;33.00;;;;;;10270174;28;20262;-77
2023/11/08 19:18:00;;;;;;;11.67;10.47;;;11.00;32.90;;;;;;10260643;28;20302;-77
2023/11/08 19:23:04;;;;;;;12.10;10.27;;;10.90;33.00;;;;;;10258446;28;20279;-77
2023/11/08 19:28:24;;;;;;;10.43;9.30;;;10.70;32.90;;;;;;10256657;28;20902;-77
2023/11/08 19:33:29;;;;;;;20.00;14.60;;;10.60;33.20;;;;;;10257992;28;20717;-76
2023/11/08 19:38:33;;;;;;;23.00;16.67;;;10.50;33.40;;;;;;10263359;28;20234;-76
2023/11/08 19:43:37;;;;;;;16.90;12.67;;;10.40;33.40;;;;;;10265512;28;20235;-76
2023/11/08 19:48:43;;;;;;;9.93;8.00;;;10.40;33.60;;;;;;10264058;28;20237;-76
2023/11/08 19:53:46;;;;;;;12.47;10.23;;;10.40;33.40;;;;;;10264797;28;20240;-76
2023/11/08 19:58:50;;;;;;;7.60;6.50;;;10.30;33.30;;;;;;10261244;28;20232;-76
2023/11/08 20:03:54;;;;;;;7.17;6.40;;;10.30;33.40;;;;;;10261661;28;20227;-76
2023/11/08 20:08:57;;;;;;;6.40;5.77;;;10.20;33.40;;;;;;10263686;28;20227;-76
2023/11/08 20:14:02;;;;;;;5.77;5.17;;;10.10;33.30;;;;;;10264285;28;20239;-76
2023/11/08 20:19:05;;;;;;;6.07;5.57;;;10.00;33.70;;;;;;10264354;28;20260;-76
2023/11/08 20:24:09;;;;;;;7.80;5.83;;;9.80;34.70;;;;;;10265222;28;20235;-75
2023/11/08 20:29:14;;;;;;;6.33;5.73;;;9.80;34.70;;;;;;10264278;28;20903;-76
2023/11/08 20:34:17;;;;;;;7.10;6.40;;;9.80;34.90;;;;;;10265087;28;20606;-76
2023/11/08 20:39:22;;;;;;;11.30;9.53;;;9.80;34.70;;;;;;10263049;28;20261;-76
2023/11/08 20:44:27;;;;;;;12.20;10.27;;;9.70;34.50;;;;;;10262374;28;20227;-77
2023/11/08 20:49:30;;;;;;;11.20;8.80;;;9.60;34.70;;;;;;10263736;28;20223;-78
2023/11/08 20:54:34;;;;;;;8.97;8.07;;;9.40;34.60;;;;;;10265968;28;20228;-76
2023/11/08 20:59:39;;;;;;;8.83;7.60;;;9.30;35.00;;;;;;10266553;28;20244;-76
2023/11/08 21:04:43;;;;;;;8.13;6.57;;;9.30;35.20;;;;;;10259119;28;20231;-76
2023/11/08 21:09:46;;;;;;;8.33;7.10;;;9.30;35.10;;;;;;10258423;28;20789;-76
2023/11/08 21:14:51;;;;;;;8.07;7.03;;;9.30;35.00;;;;;;10262165;28;20231;-75
2023/11/08 21:19:54;;;;;;;7.43;5.67;;;9.30;35.00;;;;;;10264409;28;20234;-77
2023/11/08 21:24:58;;;;;;;6.77;5.97;;;9.20;34.80;;;;;;10273260;28;20930;-77
2023/11/08 21:30:04;;;;;;;6.23;5.63;;;9.10;35.00;;;;;;10271025;28;20250;-78
2023/11/08 21:35:08;;;;;;;6.43;5.67;;;9.10;35.20;;;;;;10274046;28;20221;-76
2023/11/08 21:40:12;;;;;;;7.00;5.97;;;9.00;35.00;;;;;;10274029;28;20266;-76
2023/11/08 21:45:17;;;;;;;7.37;6.13;;;9.00;34.90;;;;;;10267720;28;20236;-76
2023/11/08 21:50:20;;;;;;;7.20;5.97;;;8.90;35.30;;;;;;10271281;28;20240;-76
2023/11/08 21:55:23;;;;;;;5.87;5.27;;;8.80;35.20;;;;;;10271315;28;20233;-76
2023/11/08 22:00:28;;;;;;;6.90;6.20;;;8.80;35.20;;;;;;10270179;28;20329;-76
2023/11/08 22:05:32;;;;;;;7.27;6.27;;;8.70;35.30;;;;;;10273975;28;20247;-76
2023/11/08 22:10:36;;;;;;;6.87;6.27;;;8.70;35.20;;;;;;10272003;28;20610;-76
2023/11/08 22:15:41;;;;;;;7.20;6.50;;;8.60;35.30;;;;;;10272628;28;20227;-76
2023/11/08 22:20:44;;;;;;;7.53;6.17;;;8.60;35.30;;;;;;10272705;28;20642;-76
2023/11/08 22:25:47;;;;;;;7.20;6.37;;;8.40;35.30;;;;;;10272933;28;20770;-75
2023/11/08 22:30:52;;;;;;;7.43;6.70;;;8.30;35.50;;;;;;10275543;28;20769;-76
2023/11/08 22:35:55;;;;;;;7.60;6.37;;;8.20;35.80;;;;;;10274819;28;20228;-76
2023/11/08 22:40:58;;;;;;;9.07;6.03;;;8.00;35.80;;;;;;10278853;28;20247;-76
2023/11/08 22:46:03;;;;;;;5.93;5.43;;;8.00;36.00;;;;;;10269883;28;20225;-76
2023/11/08 22:51:06;;;;;;;6.33;5.23;;;7.80;36.30;;;;;;10249076;28;20264;-76
2023/11/08 22:56:09;;;;;;;6.93;4.77;;;7.80;36.20;;;;;;10282405;28;20686;-75
2023/11/08 23:01:14;;;;;;;4.70;4.20;;;7.80;36.50;;;;;;10277521;28;20232;-76
2023/11/08 23:06:19;;;;;;;5.67;4.20;;;7.70;36.70;;;;;;10280478;28;20253;-76
2023/11/08 23:11:23;;;;;;;4.97;4.47;;;7.80;36.70;;;;;;10280312;28;20310;-76
2023/11/08 23:16:27;;;;;;;6.97;4.37;;;7.80;36.70;;;;;;10273581;28;20325;-76
2023/11/08 23:21:33;;;;;;;4.77;4.20;;;7.80;36.70;;;;;;10278454;28;20219;-76
2023/11/08 23:26:36;;;;;;;5.10;4.60;;;7.90;36.60;;;;;;10277266;28;20241;-76
2023/11/08 23:31:41;;;;;;;6.07;4.67;;;7.90;36.60;;;;;;10277470;28;20263;-76
2023/11/08 23:36:46;;;;;;;5.10;4.43;;;7.90;36.60;;;;;;10280850;28;20785;-76
2023/11/08 23:41:49;;;;;;;4.23;3.80;;;7.80;36.30;;;;;;10275645;28;20242;-76
2023/11/08 23:46:54;;;;;;;5.13;4.40;;;7.80;36.50;;;;;;10275182;28;20232;-76
2023/11/08 23:51:57;;;;;;;4.80;4.00;;;7.70;36.70;;;;;;10271366;28;20705;-76
2023/11/08 23:57:03;;;;;;;7.87;4.10;;;7.60;36.60;;;;;;10276456;28;20247;-76
